Time;durP1;ratioP1;P1;durP2;ratioP2;P2;SDS_P1;SDS_P2;PMS_P1;PMS_P2;Temp;Humidity;BMP_temperature;BMP_pressure;BME280_temperature;BME280_humidity;BME280_pressure;Samples;Min_cycle;Max_cycle;Signal;HPM_P1;HPM_P2
2024/01/30 00:01:47;;;;;;;14.82;10.00;;;;;;;2.03;100.00;98669.91;5000062;28;20983;-80
2024/01/30 00:04:13;;;;;;;12.88;9.07;;;;;;;1.99;100.00;98668.63;4999525;28;20441;-79
2024/01/30 00:06:41;;;;;;;15.15;9.65;;;;;;;1.95;100.00;98668.13;5000029;28;20413;-80
2024/01/30 00:09:07;;;;;;;11.65;8.38;;;;;;;1.93;100.00;98667.50;4999463;28;20402;-80
2024/01/30 00:11:33;;;;;;;13.35;9.50;;;;;;;1.92;100.00;98667.66;4999183;28;20489;-79
2024/01/30 00:14:00;;;;;;;12.87;9.23;;;;;;;1.89;100.00;98671.41;5002459;28;20415;-80
2024/01/30 00:16:26;;;;;;;14.25;9.77;;;;;;;1.88;100.00;98663.75;5002088;28;20406;-80
2024/01/30 00:18:52;;;;;;;12.27;9.23;;;;;;;1.87;100.00;98664.75;4998937;28;20495;-80
2024/01/30 00:21:19;;;;;;;15.38;9.93;;;;;;;1.87;100.00;98669.97;4997972;28;20989;-80
2024/01/30 00:23:46;;;;;;;16.48;10.70;;;;;;;1.87;100.00;98673.38;4997367;28;20406;-78
2024/01/30 00:26:14;;;;;;;21.27;11.70;;;;;;;1.87;100.00;98668.16;4997071;28;20413;-78
2024/01/30 00:28:41;;;;;;;20.42;12.73;;;;;;;1.90;100.00;98674.84;4996239;28;20805;-79
2024/01/30 00:31:07;;;;;;;20.15;11.88;;;;;;;1.94;100.00;98673.53;4995730;28;20400;-79
2024/01/30 00:33:35;;;;;;;20.02;11.15;;;;;;;1.95;100.00;98664.72;4995042;28;21693;-79
2024/01/30 00:36:02;;;;;;;18.17;11.60;;;;;;;1.95;100.00;98677.78;4995991;28;20473;-79
2024/01/30 00:38:28;;;;;;;16.05;11.15;;;;;;;1.95;100.00;98677.78;4995482;28;20469;-78
2024/01/30 00:40:55;;;;;;;18.27;12.13;;;;;;;1.95;100.00;98672.56;4995610;28;20606;-78
2024/01/30 00:43:22;;;;;;;17.67;11.18;;;;;;;1.93;100.00;98675.34;4995533;28;20402;-79
2024/01/30 00:45:48;;;;;;;14.37;10.50;;;;;;;1.91;100.00;98674.69;4996219;28;20482;-80
2024/01/30 00:48:14;;;;;;;15.57;10.68;;;;;;;1.90;100.00;98678.25;4998078;28;20733;-80
2024/01/30 00:50:40;;;;;;;19.58;11.80;;;;;;;1.88;100.00;98672.38;4999878;28;20398;-80
2024/01/30 00:53:06;;;;;;;16.65;10.93;;;;;;;1.84;100.00;98670.28;4998196;28;20460;-80
2024/01/30 00:55:32;;;;;;;17.83;11.43;;;;;;;1.83;100.00;98671.25;4999285;28;20402;-80
2024/01/30 00:58:00;;;;;;;20.13;11.23;;;;;;;1.82;100.00;98680.06;4995653;28;20395;-78
2024/01/30 01:00:29;;;;;;;17.20;11.77;;;;;;;1.81;100.00;98681.03;4994745;28;20418;-78
2024/01/30 01:02:55;;;;;;;18.35;11.65;;;;;;;1.79;100.00;98672.56;4996762;28;20463;-80
2024/01/30 01:05:22;;;;;;;19.05;12.50;;;;;;;1.80;100.00;98677.63;4995443;28;20390;-78
2024/01/30 01:07:48;;;;;;;19.48;12.18;;;;;;;1.79;100.00;98673.38;4995225;28;20407;-79
2024/01/30 01:10:15;;;;;;;16.02;11.40;;;;;;;1.80;100.00;98676.81;4997793;28;20771;-79
2024/01/30 01:12:42;;;;;;;14.70;9.98;;;;;;;1.78;100.00;98678.75;4997190;28;20433;-79
2024/01/30 01:15:10;;;;;;;14.00;9.55;;;;;;;1.73;100.00;98679.22;4997340;28;20497;-79
2024/01/30 01:17:36;;;;;;;14.53;10.00;;;;;;;1.70;100.00;98676.97;4997715;28;20852;-78
2024/01/30 01:20:03;;;;;;;15.17;10.67;;;;;;;1.69;100.00;98680.56;4997182;28;20484;-79
2024/01/30 01:22:29;;;;;;;19.48;13.05;;;;;;;1.68;100.00;98678.91;4997339;28;20508;-78
2024/01/30 01:24:55;;;;;;;23.90;13.90;;;;;;;1.64;100.00;98684.63;4997819;28;20774;-79
2024/01/30 01:27:21;;;;;;;19.50;13.02;;;;;;;1.63;100.00;98683.81;4997822;28;20448;-79
2024/01/30 01:29:48;;;;;;;19.77;12.10;;;;;;;1.62;100.00;98682.19;4998311;28;20413;-79
2024/01/30 01:32:16;;;;;;;18.35;11.65;;;;;;;1.60;100.00;98678.91;4999509;28;20436;-79
2024/01/30 01:34:42;;;;;;;18.13;11.15;;;;;;;1.58;100.00;98683.47;5008329;28;20452;-79
2024/01/30 01:37:08;;;;;;;19.60;11.68;;;;;;;1.55;100.00;98679.41;4996747;28;20394;-79
2024/01/30 01:39:34;;;;;;;17.55;11.57;;;;;;;1.52;100.00;98674.50;4997256;28;20418;-79
2024/01/30 01:42:00;;;;;;;17.52;11.27;;;;;;;1.51;100.00;98677.28;4996363;28;20413;-78
2024/01/30 01:44:26;;;;;;;18.30;11.65;;;;;;;1.50;100.00;98680.88;4996713;28;20406;-78
2024/01/30 01:46:53;;;;;;;16.85;11.30;;;;;;;1.49;100.00;98677.44;4996681;28;20458;-79
2024/01/30 01:49:24;;;;;;;18.63;11.90;;;;;;;1.47;100.00;98682.00;4996727;28;20484;-79
2024/01/30 01:51:51;;;;;;;22.90;12.10;;;;;;;1.44;100.00;98682.31;4998909;28;20450;-79
2024/01/30 01:54:18;;;;;;;18.05;11.50;;;;;;;1.44;100.00;98684.09;4998893;28;20900;-79
2024/01/30 01:56:44;;;;;;;22.08;11.70;;;;;;;1.41;100.00;98667.00;4999675;28;20414;-79
2024/01/30 01:59:10;;;;;;;15.63;10.43;;;;;;;1.39;100.00;98674.16;4998935;28;20430;-79
2024/01/30 02:01:37;;;;;;;17.77;11.37;;;;;;;1.36;100.00;98669.25;4998486;28;20486;-78
2024/01/30 02:04:04;;;;;;;15.45;10.27;;;;;;;1.33;100.00;98669.59;4999634;28;20470;-80
2024/01/30 02:06:32;;;;;;;13.63;9.70;;;;;;;1.31;100.00;98666.34;5000135;28;20413;-79
2024/01/30 02:08:58;;;;;;;16.80;10.38;;;;;;;1.26;100.00;98675.63;5000603;28;20473;-80
2024/01/30 02:11:24;;;;;;;19.13;12.73;;;;;;;1.22;100.00;98680.31;4999366;28;20421;-78
2024/01/30 02:13:50;;;;;;;22.63;12.05;;;;;;;1.19;100.00;98678.06;4998986;28;20394;-78
2024/01/30 02:16:17;;;;;;;17.83;11.90;;;;;;;1.19;100.00;98678.06;4997757;28;20425;-78
2024/01/30 02:18:47;;;;;;;16.88;11.18;;;;;;;1.20;100.00;98677.09;4998952;28;20453;-78
2024/01/30 02:21:14;;;;;;;18.55;11.98;;;;;;;1.19;100.00;98677.25;4998302;28;20861;-77
2024/01/30 02:23:42;;;;;;;17.65;11.30;;;;;;;1.17;100.00;98677.41;4999298;28;20585;-78
2024/01/30 02:26:09;;;;;;;16.02;11.02;;;;;;;1.16;100.00;98680.97;4998984;28;20824;-78
2024/01/30 02:28:35;;;;;;;20.95;12.43;;;;;;;1.16;100.00;98687.00;4998944;28;20402;-78
2024/01/30 02:31:01;;;;;;;18.77;11.40;;;;;;;1.16;100.00;98694.00;4997350;28;20434;-78
2024/01/30 02:33:27;;;;;;;20.50;12.30;;;;;;;1.15;100.00;98685.38;4997725;28;20440;-78
2024/01/30 02:35:53;;;;;;;21.77;12.85;;;;;;;1.14;100.00;98681.13;4997478;28;20768;-78
2024/01/30 02:38:21;;;;;;;19.98;12.23;;;;;;;1.13;100.00;98684.69;4999086;28;20497;-78
2024/01/30 02:40:47;;;;;;;21.53;12.57;;;;;;;1.14;100.00;98675.91;4998807;28;20480;-80
2024/01/30 02:43:13;;;;;;;19.77;11.80;;;;;;;1.15;100.00;98676.72;4998756;28;20430;-78
2024/01/30 02:45:39;;;;;;;15.60;10.85;;;;;;;1.12;100.00;98680.50;4998459;28;20402;-78
2024/01/30 02:48:06;;;;;;;12.95;9.43;;;;;;;1.08;100.00;98678.34;4996927;28;20472;-79
2024/01/30 02:50:32;;;;;;;16.13;10.30;;;;;;;1.02;100.00;98679.81;4998379;28;20408;-80
2024/01/30 02:52:58;;;;;;;17.13;9.95;;;;;;;0.98;100.00;98675.03;4999211;28;20399;-80
2024/01/30 02:55:26;;;;;;;16.38;10.00;;;;;;;0.95;100.00;98664.94;5000017;28;20485;-79
2024/01/30 02:57:52;;;;;;;14.55;9.63;;;;;;;0.92;100.00;98673.06;5000641;28;20919;-80
2024/01/30 03:00:19;;;;;;;13.02;9.00;;;;;;;0.88;100.00;98667.38;5000195;28;20473;-79
2024/01/30 03:02:45;;;;;;;13.95;9.30;;;;;;;0.85;100.00;98667.69;5000736;28;20440;-80
2024/01/30 03:05:13;;;;;;;13.03;8.93;;;;;;;0.82;100.00;98660.19;4999844;28;20403;-80
2024/01/30 03:07:39;;;;;;;16.55;9.93;;;;;;;0.81;100.00;98666.38;5000457;28;20452;-79
2024/01/30 03:10:06;;;;;;;14.40;8.82;;;;;;;0.78;100.00;98662.28;5000298;28;20414;-80
2024/01/30 03:12:33;;;;;;;14.53;9.43;;;;;;;0.77;100.00;98659.84;4999886;28;20461;-79
2024/01/30 03:15:00;;;;;;;16.23;9.80;;;;;;;0.75;100.00;98656.59;4999833;28;20414;-80
2024/01/30 03:17:26;;;;;;;14.35;9.10;;;;;;;0.73;100.00;98661.13;5009776;28;20400;-79
2024/01/30 03:19:52;;;;;;;11.85;8.43;;;;;;;0.72;100.00;98664.72;5022827;28;20431;-79
2024/01/30 03:22:18;;;;;;;13.25;8.48;;;;;;;0.71;100.00;98663.06;5027519;28;20437;-79
2024/01/30 03:24:44;;;;;;;15.68;9.88;;;;;;;0.69;100.00;98655.41;5029872;28;20408;-79
2024/01/30 03:27:10;;;;;;;14.65;9.23;;;;;;;0.66;100.00;98665.34;5025722;28;20401;-79
2024/01/30 03:29:38;;;;;;;13.45;9.23;;;;;;;0.65;100.00;98667.13;5024895;28;20453;-79
2024/01/30 03:32:05;;;;;;;14.75;9.50;;;;;;;0.63;100.00;98663.03;5027369;28;20501;-79
2024/01/30 03:34:31;;;;;;;16.08;10.18;;;;;;;0.62;100.00;98666.63;5026395;28;20423;-79
2024/01/30 03:36:57;;;;;;;17.60;10.43;;;;;;;0.60;100.00;98665.97;5023138;28;20400;-79
2024/01/30 03:39:23;;;;;;;14.43;9.55;;;;;;;0.60;100.00;98671.19;5020379;28;20408;-79
2024/01/30 03:41:49;;;;;;;14.23;9.45;;;;;;;0.59;100.00;98667.75;5021425;28;20393;-80
2024/01/30 03:44:16;;;;;;;16.58;9.77;;;;;;;0.59;100.00;98662.56;5020069;28;20908;-79
2024/01/30 03:46:43;;;;;;;17.02;10.10;;;;;;;0.58;100.00;98668.72;5019487;28;20527;-79
2024/01/30 03:49:10;;;;;;;15.00;9.50;;;;;;;0.60;100.00;98658.94;5017235;28;20420;-80
2024/01/30 03:51:36;;;;;;;18.67;10.38;;;;;;;0.60;100.00;98666.75;5017873;28;20393;-80
2024/01/30 03:54:02;;;;;;;16.45;10.55;;;;;;;0.61;100.00;98657.97;5017072;28;20397;-79
2024/01/30 03:56:28;;;;;;;13.27;8.85;;;;;;;0.60;100.00;98666.75;5017230;28;20397;-79
2024/01/30 03:58:55;;;;;;;12.85;8.73;;;;;;;0.60;100.00;98665.97;5016675;28;20419;-80
2024/01/30 04:01:22;;;;;;;12.82;8.77;;;;;;;0.57;100.00;98671.50;5017188;28;20487;-79
2024/01/30 04:03:49;;;;;;;14.88;9.10;;;;;;;0.56;100.00;98664.63;5016951;28;20483;-80
2024/01/30 04:06:15;;;;;;;13.90;9.40;;;;;;;0.56;100.00;98668.06;5016904;28;20401;-79
2024/01/30 04:08:42;;;;;;;11.55;7.95;;;;;;;0.54;100.00;98666.56;5016926;28;20458;-79
2024/01/30 04:11:08;;;;;;;12.88;9.30;;;;;;;0.54;100.00;98667.41;5017493;28;20483;-80
2024/01/30 04:13:34;;;;;;;14.38;9.27;;;;;;;0.53;100.00;98665.75;5017145;28;20459;-80
2024/01/30 04:16:03;;;;;;;14.88;10.10;;;;;;;0.53;100.00;98665.75;5016650;28;20408;-80
2024/01/30 04:18:29;;;;;;;16.83;9.90;;;;;;;0.51;100.00;98666.91;5016919;28;20476;-79
2024/01/30 04:20:57;;;;;;;11.38;8.25;;;;;;;0.51;100.00;98661.69;5017174;28;20397;-79
2024/01/30 04:23:23;;;;;;;12.82;8.75;;;;;;;0.48;100.00;98662.81;5018014;28;20485;-80
2024/01/30 04:25:49;;;;;;;13.30;8.52;;;;;;;0.48;100.00;98665.41;5016557;28;20405;-79
2024/01/30 04:28:15;;;;;;;15.02;9.40;;;;;;;0.46;100.00;98669.97;5016872;28;20401;-79
2024/01/30 04:30:42;;;;;;;15.48;10.10;;;;;;;0.47;100.00;98662.97;5018957;28;20401;-79
2024/01/30 04:33:08;;;;;;;13.55;9.20;;;;;;;0.44;100.00;98666.72;5017923;28;20507;-79
2024/01/30 04:35:34;;;;;;;11.98;7.85;;;;;;;0.44;100.00;98665.91;5017418;28;20405;-80
2024/01/30 04:38:01;;;;;;;12.88;7.88;;;;;;;0.40;100.00;98662.78;5016959;28;20739;-79
2024/01/30 04:40:27;;;;;;;9.90;7.85;;;;;;;0.37;100.00;98657.88;5016694;28;20996;-79
2024/01/30 04:42:54;;;;;;;11.43;8.10;;;;;;;0.35;100.00;98659.81;5016959;28;20428;-79
2024/01/30 04:45:20;;;;;;;14.48;9.23;;;;;;;0.34;100.00;98660.78;5016966;28;20463;-80
2024/01/30 04:47:46;;;;;;;14.05;8.85;;;;;;;0.33;100.00;98662.56;5017037;28;20408;-79
2024/01/30 04:50:12;;;;;;;17.25;10.07;;;;;;;0.39;100.00;98666.34;5017474;28;20405;-80
2024/01/30 04:52:38;;;;;;;18.77;10.60;;;;;;;0.42;100.00;98667.84;5017434;28;20450;-79
2024/01/30 04:55:07;;;;;;;14.95;9.80;;;;;;;0.43;100.00;98659.88;5016534;28;20487;-79
2024/01/30 04:57:33;;;;;;;13.13;8.68;;;;;;;0.43;100.00;98662.47;5016287;28;20501;-79
2024/01/30 04:59:59;;;;;;;14.45;8.57;;;;;;;0.42;100.00;98665.22;5015847;28;20494;-79
2024/01/30 05:02:25;;;;;;;13.02;8.23;;;;;;;0.38;100.00;98673.34;5009099;28;20577;-79
2024/01/30 05:04:52;;;;;;;14.80;9.00;;;;;;;0.34;100.00;98668.59;4998037;28;20403;-79
2024/01/30 05:07:18;;;;;;;13.93;8.52;;;;;;;0.31;100.00;98667.13;5001796;28;20460;-80
2024/01/30 05:09:44;;;;;;;12.18;8.48;;;;;;;0.30;100.00;98670.69;5017964;28;20411;-80
2024/01/30 05:12:12;;;;;;;11.13;7.50;;;;;;;0.27;100.00;98676.22;5017205;28;20431;-79
2024/01/30 05:14:38;;;;;;;13.45;8.23;;;;;;;0.24;100.00;98679.13;5017072;28;20397;-80
2024/01/30 05:17:04;;;;;;;9.95;7.55;;;;;;;0.23;100.00;98682.69;5018379;28;20395;-79
2024/01/30 05:19:30;;;;;;;11.02;7.35;;;;;;;0.18;100.00;98674.53;5029203;28;20425;-79
2024/01/30 05:21:56;;;;;;;11.55;7.97;;;;;;;0.18;100.00;98671.94;5028524;28;20408;-79
2024/01/30 05:24:22;;;;;;;11.30;7.75;;;;;;;0.18;100.00;98673.72;5028668;28;20425;-79
2024/01/30 05:26:50;;;;;;;12.43;8.00;;;;;;;0.17;100.00;98672.91;5029608;28;20438;-79
2024/01/30 05:29:18;;;;;;;11.80;7.95;;;;;;;0.16;100.00;98678.25;5028826;28;20404;-80
2024/01/30 05:31:44;;;;;;;11.02;7.53;;;;;;;0.15;100.00;98672.22;5026599;28;20405;-80
2024/01/30 05:34:10;;;;;;;9.63;7.07;;;;;;;0.15;100.00;98674.81;5019230;28;20401;-82
2024/01/30 05:36:36;;;;;;;11.45;7.60;;;;;;;0.15;100.00;98674.81;5020463;28;20407;-82
2024/01/30 05:39:03;;;;;;;10.40;7.65;;;;;;;0.13;100.00;98674.19;5011140;28;20415;-79
2024/01/30 05:41:29;;;;;;;11.48;7.70;;;;;;;0.13;100.00;98683.78;5000056;28;20900;-80
2024/01/30 05:43:55;;;;;;;12.35;8.23;;;;;;;0.11;100.00;98678.72;4999102;28;20399;-81
2024/01/30 05:46:22;;;;;;;13.32;8.27;;;;;;;0.11;100.00;98685.72;4998588;28;20409;-82
2024/01/30 05:48:49;;;;;;;11.57;7.40;;;;;;;0.08;100.00;98686.00;4997876;28;20416;-80
2024/01/30 05:51:15;;;;;;;9.55;6.85;;;;;;;0.06;100.00;98683.56;4998336;28;20401;-82
2024/01/30 05:53:41;;;;;;;11.13;7.25;;;;;;;0.05;100.00;98686.31;4998371;28;20406;-80
2024/01/30 05:56:07;;;;;;;10.95;7.45;;;;;;;0.00;100.00;98692.78;4998566;28;20402;-80
2024/01/30 05:58:33;;;;;;;9.90;7.50;;;;;;;-0.01;100.00;98698.16;4997367;28;20545;-81
2024/01/30 06:00:59;;;;;;;11.05;7.28;;;;;;;-0.03;100.00;98694.91;4998378;28;20413;-80
2024/01/30 06:03:27;;;;;;;12.23;8.23;;;;;;;-0.04;100.00;98694.06;4998318;28;20406;-80
2024/01/30 06:05:53;;;;;;;12.52;8.00;;;;;;;-0.05;100.00;98689.00;4994994;28;20413;-82
2024/01/30 06:08:19;;;;;;;11.07;8.02;;;;;;;-0.05;100.00;98691.63;4997261;28;20653;-81
2024/01/30 06:10:45;;;;;;;9.70;7.68;;;;;;;-0.05;100.00;98694.22;4996010;28;20422;-81
2024/01/30 06:13:12;;;;;;;14.35;8.25;;;;;;;-0.07;100.00;98691.75;4997533;28;20405;-82
2024/01/30 06:15:38;;;;;;;12.57;8.50;;;;;;;-0.09;100.00;98693.72;4997935;28;20459;-82
2024/01/30 06:18:04;;;;;;;11.02;7.97;;;;;;;-0.09;100.00;98693.72;4998544;28;20406;-81
2024/01/30 06:20:32;;;;;;;13.40;8.82;;;;;;;-0.10;100.00;98686.88;4997187;28;20938;-83
2024/01/30 06:22:58;;;;;;;14.98;8.50;;;;;;;-0.12;100.00;98686.22;4999618;28;20429;-80
2024/01/30 06:25:24;;;;;;;13.93;8.43;;;;;;;-0.13;100.00;98689.78;4999331;28;20418;-81
2024/01/30 06:27:50;;;;;;;12.45;8.45;;;;;;;-0.12;100.00;98688.81;4999879;28;20403;-80
2024/01/30 06:30:17;;;;;;;12.48;8.10;;;;;;;-0.14;100.00;98701.16;4997304;28;20876;-81
2024/01/30 06:32:43;;;;;;;13.15;8.57;;;;;;;-0.15;100.00;98691.69;4997608;28;20919;-81
2024/01/30 06:35:10;;;;;;;11.65;7.82;;;;;;;-0.15;100.00;98689.09;4998410;28;20872;-80
2024/01/30 06:37:38;;;;;;;10.93;7.90;;;;;;;-0.14;100.00;98695.94;5000441;28;20764;-81
2024/01/30 06:40:05;;;;;;;11.40;7.70;;;;;;;-0.13;100.00;98688.97;5002643;28;21058;-81
2024/01/30 06:42:31;;;;;;;11.57;7.85;;;;;;;-0.15;100.00;98694.31;4997247;28;20754;-81
2024/01/30 06:44:57;;;;;;;13.00;8.32;;;;;;;-0.15;100.00;98694.31;4999716;28;20437;-81
2024/01/30 06:47:23;;;;;;;13.23;8.23;;;;;;;-0.15;100.00;98696.91;4997683;28;20394;-81
2024/01/30 06:49:49;;;;;;;11.97;7.40;;;;;;;-0.13;100.00;98687.16;5001360;28;20495;-81
2024/01/30 06:52:15;;;;;;;10.05;7.00;;;;;;;-0.11;100.00;98698.25;5002830;28;20402;-81
2024/01/30 06:54:43;;;;;;;11.30;7.75;;;;;;;-0.11;100.00;98698.25;5002487;28;20525;-81
2024/01/30 06:57:12;;;;;;;11.57;7.20;;;;;;;-0.10;100.00;98694.69;5005408;28;20408;-81
2024/01/30 06:59:47;;;;;;;12.63;7.43;;;;;;;-0.07;100.00;98693.53;5005091;28;20432;-80
2024/01/30 07:02:13;;;;;;;11.38;7.35;;;;;;;-0.05;100.00;98699.44;5001041;28;20402;-82
2024/01/30 07:04:40;;;;;;;10.57;6.70;;;;;;;-0.03;100.00;98694.91;5002537;28;20402;-81
2024/01/30 07:07:11;;;;;;;11.65;7.35;;;;;;;-0.01;100.00;98706.81;4999989;28;20860;-80
2024/01/30 07:09:37;;;;;;;11.52;7.78;;;;;;;0.01;100.00;98701.41;5000032;28;20488;-81
2024/01/30 07:12:06;;;;;;;12.80;7.85;;;;;;;0.06;100.00;98708.78;5001050;28;20410;-81
2024/01/30 07:14:32;;;;;;;13.55;7.95;;;;;;;0.08;100.00;98707.66;5000480;28;20461;-79
2024/01/30 07:16:58;;;;;;;11.90;7.82;;;;;;;0.12;100.00;98706.38;5002556;28;20406;-81
2024/01/30 07:19:24;;;;;;;11.00;7.45;;;;;;;0.16;100.00;98706.88;5000419;28;20415;-81
2024/01/30 07:21:50;;;;;;;12.52;8.40;;;;;;;0.20;100.00;98708.22;5003630;28;20469;-80
2024/01/30 07:24:18;;;;;;;13.55;8.85;;;;;;;0.23;100.00;98707.91;5001642;28;20769;-80
2024/01/30 07:26:44;;;;;;;12.35;8.52;;;;;;;0.28;100.00;98700.47;5002190;28;20410;-81
2024/01/30 07:29:11;;;;;;;15.55;8.48;;;;;;;0.31;100.00;98703.56;5002148;28;20439;-80
2024/01/30 07:31:37;;;;;;;12.10;8.40;;;;;;;0.39;100.00;98706.22;5002899;28;20405;-80
2024/01/30 07:34:04;;;;;;;12.57;7.90;;;;;;;0.46;100.00;98700.41;5001877;28;20498;-80
2024/01/30 07:36:30;;;;;;;12.38;8.48;;;;;;;0.52;100.00;98703.22;5001981;28;20419;-79
2024/01/30 07:38:56;;;;;;;15.07;8.48;;;;;;;0.59;100.00;98699.03;5000007;28;20399;-81
2024/01/30 07:41:24;;;;;;;12.65;8.60;;;;;;;0.67;100.00;98699.06;5000532;28;20407;-80
2024/01/30 07:43:50;;;;;;;12.38;7.88;;;;;;;0.76;100.00;98705.09;5000696;28;20452;-80
2024/01/30 07:46:17;;;;;;;12.30;8.50;;;;;;;0.87;100.00;98711.84;5000345;28;20860;-81
2024/01/30 07:48:44;;;;;;;11.48;7.95;;;;;;;0.95;100.00;98707.47;4998887;28;20472;-81
2024/01/30 07:51:10;;;;;;;9.80;7.45;;;;;;;1.06;100.00;98712.38;4998185;28;20839;-80
2024/01/30 07:53:36;;;;;;;10.95;7.38;;;;;;;1.16;100.00;98718.28;4997720;28;20405;-79
2024/01/30 07:56:02;;;;;;;10.70;6.82;;;;;;;1.29;100.00;98714.41;5000337;28;20457;-80
2024/01/30 07:58:28;;;;;;;11.52;7.88;;;;;;;1.40;100.00;98714.94;4997985;28;20406;-78
2024/01/30 08:00:57;;;;;;;12.60;7.90;;;;;;;1.54;100.00;98711.69;4993226;28;20427;-78
2024/01/30 08:03:25;;;;;;;11.47;7.60;;;;;;;1.66;100.00;98719.19;4997597;28;20506;-81
2024/01/30 08:05:51;;;;;;;10.35;7.00;;;;;;;1.77;100.00;98724.94;5000392;28;20858;-80
2024/01/30 08:08:17;;;;;;;13.13;7.05;;;;;;;1.91;100.00;98716.44;4994582;28;20403;-81
2024/01/30 08:10:44;;;;;;;8.57;6.15;;;;;;;2.03;100.00;98713.53;5000475;28;20462;-81
2024/01/30 08:13:10;;;;;;;8.25;5.97;;;;;;;2.14;100.00;98707.94;5001986;28;20926;-82
2024/01/30 08:15:36;;;;;;;6.65;5.20;;;;;;;2.27;100.00;98718.69;5001244;28;20430;-82
2024/01/30 08:18:02;;;;;;;6.60;4.97;;;;;;;2.38;100.00;98710.53;5001410;28;20410;-80
2024/01/30 08:20:30;;;;;;;6.47;4.75;;;;;;;2.50;100.00;98706.56;4999108;28;20453;-80
2024/01/30 08:22:56;;;;;;;5.72;4.40;;;;;;;2.61;100.00;98714.06;5000854;28;20430;-81
2024/01/30 08:25:22;;;;;;;8.25;4.90;;;;;;;2.71;100.00;98709.44;4999874;28;20402;-80
2024/01/30 08:27:48;;;;;;;5.32;4.80;;;;;;;2.84;100.00;98708.13;4999688;28;20407;-79
2024/01/30 08:30:15;;;;;;;5.07;4.45;;;;;;;2.96;100.00;98709.38;4999826;28;20465;-80
2024/01/30 08:32:41;;;;;;;6.55;4.53;;;;;;;3.10;100.00;98700.78;4999522;28;20844;-80
2024/01/30 08:35:08;;;;;;;4.95;4.28;;;;;;;3.20;100.00;98706.63;4999265;28;20406;-80
2024/01/30 08:37:36;;;;;;;7.57;5.05;;;;;;;3.34;100.00;98707.69;4999101;28;20398;-80
2024/01/30 08:40:04;;;;;;;5.57;4.65;;;;;;;3.60;100.00;98704.78;5000480;28;20449;-80
2024/01/30 08:42:30;;;;;;;5.65;4.45;;;;;;;3.75;100.00;98716.94;4999574;28;20410;-80
2024/01/30 08:44:56;;;;;;;5.13;4.50;;;;;;;3.93;100.00;98707.94;4999831;28;20402;-81
2024/01/30 08:47:22;;;;;;;4.53;3.85;;;;;;;4.11;100.00;98706.66;4999921;28;20414;-81
2024/01/30 08:49:49;;;;;;;6.55;4.00;;;;;;;4.27;100.00;98703.06;4998612;28;20482;-80
2024/01/30 08:52:15;;;;;;;4.63;3.85;;;;;;;4.49;100.00;98704.00;4999382;28;20481;-81
2024/01/30 08:54:42;;;;;;;4.68;3.42;;;;;;;4.59;100.00;98702.72;4999483;28;20403;-80
2024/01/30 08:57:08;;;;;;;3.90;3.28;;;;;;;4.67;100.00;98707.06;5000521;28;20485;-80
2024/01/30 08:59:35;;;;;;;4.63;3.72;;;;;;;4.78;100.00;98708.44;4999684;28;20422;-81
2024/01/30 09:02:01;;;;;;;4.72;3.50;;;;;;;4.97;100.00;98713.09;4999323;28;20437;-79
2024/01/30 09:04:27;;;;;;;6.10;3.67;;;;;;;5.14;100.00;98714.53;4998415;28;20407;-80
2024/01/30 09:06:53;;;;;;;4.00;3.20;;;;;;;5.34;100.00;98717.38;4998024;28;20407;-79
2024/01/30 09:09:20;;;;;;;5.28;3.47;;;;;;;5.55;100.00;98714.81;4997171;28;20989;-79
2024/01/30 09:11:48;;;;;;;5.07;3.00;;;;;;;5.84;100.00;98716.50;4997309;28;20918;-79
2024/01/30 09:14:14;;;;;;;3.72;2.92;;;;;;;6.25;100.00;98724.56;4999342;28;20429;-81
2024/01/30 09:16:40;;;;;;;3.40;2.90;;;;;;;6.60;100.00;98725.44;5001280;28;20402;-80
2024/01/30 09:19:06;;;;;;;4.22;3.13;;;;;;;6.84;100.00;98724.97;5001313;28;20463;-83
2024/01/30 09:21:32;;;;;;;4.18;2.83;;;;;;;7.14;100.00;98730.78;5000545;28;20399;-82
2024/01/30 09:24:05;;;;;;;7.85;3.80;;;;;;;7.36;100.00;98734.13;5000350;28;20394;-82
2024/01/30 09:26:31;;;;;;;4.38;3.30;;;;;;;7.78;100.00;98730.38;5000951;28;20421;-84
2024/01/30 09:28:58;;;;;;;4.15;2.88;;;;;;;8.25;100.00;98737.34;4998569;28;20760;-81
2024/01/30 09:31:25;;;;;;;3.47;2.50;;;;;;;8.70;100.00;98722.53;4998145;28;20437;-81
2024/01/30 09:33:53;;;;;;;4.32;2.60;;;;;;;9.06;100.00;98737.84;4998516;28;20402;-83
2024/01/30 09:36:20;;;;;;;3.35;2.58;;;;;;;9.30;100.00;98737.16;4999605;28;20398;-83
2024/01/30 09:38:46;;;;;;;3.53;2.83;;;;;;;9.45;100.00;98739.53;4999201;28;20407;-81
2024/01/30 09:41:14;;;;;;;3.90;2.65;;;;;;;9.58;100.00;98736.84;4997830;28;20414;-82
2024/01/30 09:43:41;;;;;;;5.72;3.88;;;;;;;9.69;100.00;98740.66;4999676;28;20872;-82
2024/01/30 09:46:14;;;;;;;5.93;3.58;;;;;;;9.80;100.00;98736.50;4997948;28;20429;-84
2024/01/30 09:48:42;;;;;;;5.07;3.45;;;;;;;9.90;100.00;98739.50;4997627;28;20892;-83
2024/01/30 09:51:09;;;;;;;5.97;3.83;;;;;;;9.99;100.00;98732.94;4999525;28;20409;-83
2024/01/30 09:53:36;;;;;;;4.38;3.72;;;;;;;10.12;100.00;98746.06;4999627;28;20394;-83
2024/01/30 09:56:04;;;;;;;4.43;3.40;;;;;;;10.26;100.00;98744.97;4999218;28;20401;-82
2024/01/30 09:58:30;;;;;;;3.63;3.00;;;;;;;10.35;100.00;98748.97;4998174;28;20485;-83
2024/01/30 10:00:56;;;;;;;3.78;2.65;;;;;;;10.46;100.00;98753.56;4996266;28;20457;-81
2024/01/30 10:03:23;;;;;;;3.47;2.97;;;;;;;10.51;100.00;98752.91;4996581;28;20426;-82
2024/01/30 10:05:52;;;;;;;5.30;2.80;;;;;;;10.28;100.00;98760.63;4997155;28;20394;-82
2024/01/30 10:08:21;;;;;;;4.35;2.72;;;;;;;10.21;100.00;98755.41;4995282;28;20461;-81
2024/01/30 10:10:48;;;;;;;3.70;2.72;;;;;;;10.03;100.00;98750.81;4996270;28;20469;-83
2024/01/30 10:13:14;;;;;;;2.83;2.50;;;;;;;9.92;100.00;98756.75;4997453;28;20434;-82
2024/01/30 10:15:41;;;;;;;5.05;2.92;;;;;;;9.83;100.00;98757.25;4998439;28;20448;-81
2024/01/30 10:18:08;;;;;;;2.80;2.33;;;;;;;9.82;100.00;98752.97;4998692;28;20421;-81
2024/01/30 10:20:36;;;;;;;4.45;2.40;;;;;;;9.77;100.00;98748.34;4998701;28;20445;-80
2024/01/30 10:23:03;;;;;;;3.78;2.60;;;;;;;9.58;100.00;98746.59;4996003;28;20441;-80
2024/01/30 10:25:30;;;;;;;5.60;3.40;;;;;;;9.36;100.00;98747.91;4997855;28;20780;-82
2024/01/30 10:27:58;;;;;;;4.80;3.20;;;;;;;9.41;100.00;98751.53;5000138;28;20874;-80
2024/01/30 10:30:24;;;;;;;5.75;3.58;;;;;;;9.27;100.00;98747.34;4998891;28;20409;-82
2024/01/30 10:32:51;;;;;;;5.43;3.25;;;;;;;9.26;100.00;98754.44;4998968;28;20410;-79
2024/01/30 10:35:17;;;;;;;5.20;3.10;;;;;;;9.03;100.00;98746.19;4999417;28;20477;-81
2024/01/30 10:37:48;;;;;;;4.85;3.40;;;;;;;8.96;100.00;98731.38;4996645;28;20402;-81
2024/01/30 10:40:18;;;;;;;5.28;3.00;;;;;;;9.05;100.00;98743.34;4999896;28;20415;-81
2024/01/30 10:42:46;;;;;;;4.53;3.20;;;;;;;9.07;100.00;98743.94;5000105;28;20418;-81
2024/01/30 10:45:13;;;;;;;4.97;3.50;;;;;;;9.01;100.00;98736.88;5000311;28;20406;-82
2024/01/30 10:47:43;;;;;;;6.50;3.40;;;;;;;9.00;100.00;98735.25;5000556;28;20907;-82
2024/01/30 10:50:10;;;;;;;7.47;3.40;;;;;;;8.87;100.00;98725.53;4999841;28;20398;-82
2024/01/30 10:52:37;;;;;;;5.63;3.28;;;;;;;8.98;100.00;98738.09;4999744;28;20399;-83
2024/01/30 10:55:06;;;;;;;6.75;3.63;;;;;;;9.13;100.00;98729.91;4999573;28;20426;-80
2024/01/30 10:57:35;;;;;;;5.60;3.22;;;;;;;9.12;100.00;98717.72;4999097;28;20438;-82
2024/01/30 11:00:10;;;;;;;4.28;3.10;;;;;;;9.44;100.00;98723.91;5000399;28;20429;-81
2024/01/30 11:02:38;;;;;;;4.05;2.80;;;;;;;9.67;100.00;98732.94;5000623;28;20408;-81
2024/01/30 11:05:05;;;;;;;4.78;3.00;;;;;;;9.84;100.00;98722.66;5000379;28;20513;-82
2024/01/30 11:07:31;;;;;;;4.53;3.10;;;;;;;9.88;100.00;98715.09;5001063;28;20413;-80
2024/01/30 11:10:02;;;;;;;4.05;2.90;;;;;;;10.13;100.00;98717.78;4999977;28;20402;-82
2024/01/30 11:12:33;;;;;;;5.72;3.05;;;;;;;9.97;100.00;98704.06;4999955;28;20756;-80
2024/01/30 11:15:06;;;;;;;4.97;3.10;;;;;;;9.99;100.00;98714.41;4996517;28;20402;-80
2024/01/30 11:17:53;;;;;;;4.40;2.60;;;;;;;10.00;100.00;98713.38;4999084;28;20433;-82
2024/01/30 11:20:21;;;;;;;4.78;3.10;;;;;;;10.07;100.00;98724.75;4993953;28;20430;-83
2024/01/30 11:22:50;;;;;;;3.92;2.75;;;;;;;10.06;100.00;98718.63;4999193;28;20402;-81